createdAt,value
2018-08-19T00:03:26.951Z,49.90
2018-08-19T00:08:31.107Z,49.80
2018-08-19T00:13:35.694Z,50.00
2018-08-19T00:29:58.196Z,50.10
2018-08-19T00:35:01.820Z,50.10
2018-08-19T00:40:09.680Z,50.50
2018-08-19T00:45:13.869Z,50.20
2018-08-19T00:50:17.701Z,50.30
2018-08-19T00:55:21.581Z,50.30
2018-08-19T01:00:25.783Z,50.40
2018-08-19T01:05:29.570Z,50.40
2018-08-19T01:10:33.240Z,50.40
2018-08-19T01:15:37.169Z,50.50
2018-08-19T01:20:40.988Z,50.60
2018-08-19T01:25:44.841Z,50.60
2018-08-19T01:30:48.440Z,50.60
2018-08-19T01:35:52.378Z,50.70
2018-08-19T01:40:56.732Z,50.70
2018-08-19T01:46:00.899Z,50.70
2018-08-19T01:51:06.023Z,50.80
2018-08-19T01:56:10.250Z,50.80
2018-08-19T02:01:14.775Z,50.80
2018-08-19T02:06:18.479Z,51.00
2018-08-19T02:11:30.621Z,51.00
2018-08-19T02:16:34.347Z,51.00
2018-08-19T02:21:38.010Z,51.10
2018-08-19T02:26:41.750Z,51.00
2018-08-19T02:31:46.161Z,51.00
2018-08-19T02:37:07.406Z,51.10
2018-08-19T02:42:24.703Z,51.20
2018-08-19T02:47:28.586Z,51.20
2018-08-19T02:52:33.723Z,51.20
2018-08-19T02:57:40.315Z,51.30
2018-08-19T03:02:44.216Z,51.40
2018-08-19T03:13:33.831Z,51.40
2018-08-19T03:18:37.487Z,51.40
2018-08-19T03:23:41.180Z,51.50
2018-08-19T03:28:48.560Z,51.50
2018-08-19T03:33:52.356Z,51.60
2018-08-19T03:39:07.236Z,51.50
2018-08-19T03:44:10.801Z,52.30
2018-08-19T04:00:19.857Z,51.80
2018-08-19T04:05:39.229Z,51.70
2018-08-19T04:10:44.248Z,51.80
2018-08-19T04:15:47.962Z,51.80
2018-08-19T04:20:52.292Z,51.80
2018-08-19T04:25:56.240Z,52.50
2018-08-19T04:31:00.251Z,51.90
2018-08-19T04:36:04.371Z,52.00
2018-08-19T04:41:08.030Z,51.90
2018-08-19T04:46:11.692Z,52.00
2018-08-19T04:51:15.918Z,52.00
2018-08-19T04:56:19.855Z,52.00
2018-08-19T05:01:23.784Z,52.00
2018-08-19T05:06:27.365Z,52.00
2018-08-19T05:11:31.132Z,52.00
2018-08-19T05:16:34.809Z,52.00
2018-08-19T05:21:38.573Z,52.00
2018-08-19T05:26:42.312Z,52.10
2018-08-19T05:31:51.232Z,52.10
2018-08-19T05:36:55.068Z,52.20
2018-08-19T05:42:12.875Z,52.20
2018-08-19T05:47:17.866Z,52.30
2018-08-19T05:52:22.706Z,52.20
2018-08-19T05:57:26.806Z,52.20
2018-08-19T06:02:35.664Z,52.30
2018-08-19T06:07:39.400Z,52.40
2018-08-19T06:12:43.076Z,52.40
2018-08-19T06:17:56.505Z,52.40
2018-08-19T06:23:00.248Z,52.60
2018-08-19T06:28:04.275Z,52.50
2018-08-19T06:33:08.039Z,52.40
2018-08-19T06:44:04.470Z,52.50
2018-08-19T06:49:15.980Z,52.40
2018-08-19T06:54:19.769Z,52.40
2018-08-19T06:59:36.596Z,52.30
2018-08-19T07:04:42.398Z,52.40
2018-08-19T07:09:46.822Z,52.30
2018-08-19T07:14:51.194Z,52.20
2018-08-19T07:19:55.180Z,52.20
2018-08-19T07:24:59.597Z,52.20
2018-08-19T07:30:03.318Z,52.20
2018-08-19T07:35:07.106Z,52.10
2018-08-19T07:40:11.337Z,52.10
2018-08-19T07:45:15.032Z,52.00
2018-08-19T07:50:19.024Z,52.00
2018-08-19T07:55:23.090Z,52.00
2018-08-19T08:00:32.071Z,52.60
2018-08-19T08:05:40.792Z,51.70
2018-08-19T08:10:44.776Z,51.80
2018-08-19T08:15:54.855Z,51.70
2018-08-19T08:21:04.039Z,51.60
2018-08-19T08:26:08.554Z,51.50
2018-08-19T08:31:12.936Z,51.30
2018-08-19T08:36:16.688Z,51.20
2018-08-19T08:52:21.546Z,51.10
2018-08-19T08:57:26.073Z,51.10
2018-08-19T09:02:29.704Z,51.00
2018-08-19T09:07:33.431Z,51.00
2018-08-19T09:12:44.901Z,50.90
2018-08-19T09:17:48.735Z,50.80
2018-08-19T09:22:52.517Z,50.80
2018-08-19T09:27:56.472Z,50.60
2018-08-19T09:33:01.909Z,50.60
2018-08-19T09:38:12.756Z,50.70
2018-08-19T09:43:16.763Z,50.50
2018-08-19T10:05:00.891Z,50.10
2018-08-19T10:10:04.873Z,50.10
2018-08-19T10:15:08.664Z,50.00
2018-08-19T10:20:12.759Z,49.90
2018-08-19T10:25:17.548Z,49.90
2018-08-19T10:30:21.688Z,50.00
2018-08-19T10:35:28.199Z,50.00
2018-08-19T10:40:32.073Z,50.00
2018-08-19T10:45:41.155Z,49.80
2018-08-19T10:50:45.172Z,49.80
2018-08-19T10:55:49.039Z,49.60
2018-08-19T11:00:52.936Z,49.60
2018-08-19T11:05:56.936Z,49.50
2018-08-19T11:11:00.731Z,49.10
2018-08-19T11:16:04.576Z,49.40
2018-08-19T11:21:13.722Z,49.30
2018-08-19T11:26:17.561Z,49.30
2018-08-19T11:31:27.113Z,49.20
2018-08-19T11:36:46.479Z,49.00
2018-08-19T11:41:50.519Z,48.90
2018-08-19T11:46:54.257Z,48.90
2018-08-19T11:52:04.250Z,48.70
2018-08-19T11:57:09.699Z,48.60
2018-08-19T12:02:23.675Z,48.60
2018-08-19T12:07:27.247Z,48.30
2018-08-19T12:12:46.475Z,48.20
2018-08-19T12:23:31.160Z,48.20
2018-08-19T12:34:14.102Z,47.70
2018-08-19T12:39:32.660Z,47.80
2018-08-19T12:44:36.558Z,47.40
2018-08-19T12:49:46.783Z,47.10
2018-08-19T12:54:55.863Z,46.90
2018-08-19T13:00:06.833Z,47.20
2018-08-19T13:05:10.560Z,46.50
2018-08-19T13:10:14.369Z,46.50
2018-08-19T13:15:18.627Z,46.30
2018-08-19T13:47:43.657Z,45.20
2018-08-19T13:52:47.478Z,45.30
2018-08-19T13:57:51.463Z,45.20
2018-08-19T14:02:55.211Z,45.00
2018-08-19T14:07:59.035Z,45.00
2018-08-19T14:13:02.621Z,44.90
2018-08-19T14:23:53.225Z,44.70
2018-08-19T14:28:56.890Z,44.60
2018-08-19T14:34:00.529Z,44.30
2018-08-19T14:39:22.977Z,44.90
2018-08-19T14:44:26.713Z,44.20
2018-08-19T14:49:32.871Z,44.40
2018-08-19T14:54:36.663Z,44.40
2018-08-19T14:59:40.726Z,44.10
2018-08-19T15:04:45.767Z,44.00
2018-08-19T15:09:51.477Z,43.90
2018-08-19T15:14:58.011Z,43.90
2018-08-19T15:20:01.891Z,43.80
2018-08-19T15:25:06.079Z,43.80
2018-08-19T15:30:10.784Z,43.50
2018-08-19T15:35:14.432Z,43.50
2018-08-19T15:40:29.048Z,43.60
2018-08-19T15:45:32.805Z,43.60
2018-08-19T15:50:36.899Z,43.60
2018-08-19T15:55:40.995Z,43.60
2018-08-19T16:00:45.125Z,43.60
2018-08-19T16:05:49.696Z,43.70
2018-08-19T16:10:53.547Z,43.70
2018-08-19T16:15:57.236Z,43.70
2018-08-19T16:21:04.120Z,43.90
2018-08-19T16:26:07.883Z,43.90
2018-08-19T16:31:11.695Z,44.20
2018-08-19T16:36:15.840Z,44.60
2018-08-19T16:41:20.029Z,44.60
2018-08-19T16:46:23.929Z,44.80
2018-08-19T16:51:27.846Z,44.80
2018-08-19T16:56:31.797Z,45.10
2018-08-19T17:01:36.460Z,45.10
2018-08-19T17:06:40.289Z,45.20
2018-08-19T17:11:44.433Z,45.20
2018-08-19T17:16:48.752Z,45.30
2018-08-19T17:21:52.698Z,45.70
2018-08-19T17:27:01.708Z,45.50
2018-08-19T17:32:05.409Z,45.40
2018-08-19T17:37:09.972Z,45.40
2018-08-19T17:42:13.598Z,45.50
2018-08-19T17:47:17.660Z,45.50
2018-08-19T17:52:21.390Z,45.60
2018-08-19T17:57:25.089Z,45.70
2018-08-19T18:02:28.930Z,45.90
2018-08-19T18:07:32.751Z,45.80
2018-08-19T18:12:36.383Z,45.90
2018-08-19T18:17:40.882Z,45.90
2018-08-19T18:22:44.577Z,46.00
2018-08-19T18:27:49.361Z,46.10
2018-08-19T18:32:53.236Z,46.10
2018-08-19T18:37:56.952Z,46.40
2018-08-19T18:43:00.919Z,46.50
2018-08-19T18:53:33.013Z,46.70
2018-08-19T19:04:05.717Z,46.90
2018-08-19T19:09:22.676Z,47.00
2018-08-19T19:14:27.191Z,47.20
2018-08-19T19:25:13.089Z,47.40
2018-08-19T19:30:17.523Z,47.70
2018-08-19T19:35:21.756Z,47.80
2018-08-19T19:40:25.751Z,47.80
2018-08-19T19:45:30.570Z,48.00
2018-08-19T19:50:34.985Z,47.90
2018-08-19T19:55:38.595Z,48.20
2018-08-19T20:00:52.488Z,48.30
2018-08-19T20:05:56.426Z,48.50
2018-08-19T20:11:00.352Z,48.50
2018-08-19T20:16:04.529Z,48.60
2018-08-19T20:21:27.771Z,48.70
2018-08-19T20:26:32.034Z,48.80
2018-08-19T20:31:35.740Z,49.40
2018-08-19T20:36:39.689Z,48.90
2018-08-19T20:41:43.802Z,48.90
2018-08-19T20:46:52.552Z,48.80
2018-08-19T20:51:56.888Z,48.80
2018-08-19T20:57:00.903Z,48.80
2018-08-19T21:02:05.318Z,48.80
2018-08-19T21:07:09.945Z,48.80
2018-08-19T21:12:14.035Z,48.80
2018-08-19T21:17:18.403Z,49.10
2018-08-19T21:22:23.586Z,49.10
2018-08-19T21:27:27.922Z,49.10
2018-08-19T21:32:31.887Z,49.20
2018-08-19T21:37:35.967Z,49.10
2018-08-19T21:42:48.804Z,49.10
2018-08-19T21:47:54.008Z,49.10
2018-08-19T21:53:08.401Z,49.10
2018-08-19T21:58:15.741Z,49.10
2018-08-19T22:03:25.367Z,49.10
2018-08-19T22:08:29.339Z,49.10
2018-08-19T22:13:33.447Z,49.10
2018-08-19T22:18:38.675Z,49.10
2018-08-19T22:23:44.776Z,49.20
2018-08-19T22:29:09.260Z,49.20
2018-08-19T22:34:13.312Z,49.40
2018-08-19T22:44:50.913Z,49.40
2018-08-19T22:49:55.124Z,49.40
2018-08-19T22:54:59.929Z,49.40
2018-08-19T23:00:05.656Z,49.40
2018-08-19T23:05:09.521Z,49.50
2018-08-19T23:10:13.298Z,49.50
2018-08-19T23:15:28.604Z,49.50
2018-08-19T23:20:32.523Z,49.60
2018-08-19T23:25:36.286Z,49.80
2018-08-19T23:30:39.975Z,49.60
2018-08-19T23:35:43.674Z,49.70
2018-08-19T23:40:47.522Z,50.40
2018-08-19T23:46:09.673Z,49.80
2018-08-19T23:51:17.628Z,49.90
2018-08-19T23:56:21.396Z,49.90
